createdAt,value
2018-07-11T00:01:27.859Z,97928.00
2018-07-11T00:03:56.410Z,97921.65
2018-07-11T00:06:26.228Z,97920.59
2018-07-11T00:08:54.794Z,97922.25
2018-07-11T00:11:23.342Z,97923.59
2018-07-11T00:13:51.841Z,97908.03
2018-07-11T00:16:20.349Z,97921.61
2018-07-11T00:18:48.902Z,97915.72
2018-07-11T00:21:17.450Z,97913.89
2018-07-11T00:23:45.988Z,97908.41
2018-07-11T00:26:14.550Z,97904.00
2018-07-11T00:28:43.061Z,97895.88
2018-07-11T00:31:11.637Z,97894.62
2018-07-11T00:33:40.135Z,97899.67
2018-07-11T00:36:08.697Z,97890.73
2018-07-11T00:38:37.258Z,97891.52
2018-07-11T00:41:06.609Z,97893.05
2018-07-11T00:43:35.579Z,97882.87
2018-07-11T00:46:05.124Z,97891.48
2018-07-11T00:48:33.869Z,97889.28
2018-07-11T00:51:03.115Z,97895.40
2018-07-11T00:53:32.930Z,97892.52
2018-07-11T00:56:02.282Z,97890.63
2018-07-11T00:58:33.251Z,97893.53
2018-07-11T01:01:09.819Z,97890.55
2018-07-11T01:03:41.557Z,97889.80
2018-07-11T01:06:10.534Z,97888.98
2018-07-11T01:08:41.183Z,97888.46
2018-07-11T01:11:15.796Z,97892.23
2018-07-11T01:13:45.634Z,97894.35
2018-07-11T01:16:15.418Z,97891.63
2018-07-11T01:18:47.507Z,97894.35
2018-07-11T01:21:16.046Z,97897.05
2018-07-11T01:23:44.496Z,97894.88
2018-07-11T01:26:13.549Z,97895.17
2018-07-11T01:28:42.054Z,97892.23
2018-07-11T01:31:10.545Z,97892.19
2018-07-11T01:33:39.033Z,97893.31
2018-07-11T01:36:07.522Z,97891.67
2018-07-11T01:38:36.022Z,97901.33
2018-07-11T01:41:04.564Z,97897.52
2018-07-11T01:43:33.097Z,97900.47
2018-07-11T01:46:01.628Z,97902.70
2018-07-11T01:48:30.173Z,97896.03
2018-07-11T01:50:58.717Z,97891.74
2018-07-11T01:53:27.234Z,97900.32
2018-07-11T01:55:55.809Z,97893.80
2018-07-11T01:58:24.392Z,97894.41
2018-07-11T02:00:52.965Z,97892.67
2018-07-11T02:03:21.499Z,97898.60
2018-07-11T02:05:50.390Z,97903.84
2018-07-11T02:08:18.941Z,97901.51
2018-07-11T02:10:48.066Z,97899.63
2018-07-11T02:13:16.609Z,97897.80
2018-07-11T02:15:47.148Z,97900.04
2018-07-11T02:18:17.676Z,97895.13
2018-07-11T02:20:46.866Z,97892.57
2018-07-11T02:23:16.111Z,97893.76
2018-07-11T02:25:44.660Z,97891.69
2018-07-11T02:28:13.282Z,97892.43
2018-07-11T02:30:41.958Z,97894.08
2018-07-11T02:33:10.513Z,97891.17
2018-07-11T02:35:39.070Z,97883.90
2018-07-11T02:38:07.625Z,97886.15
2018-07-11T02:40:36.110Z,97885.37
2018-07-11T02:43:04.677Z,97888.69
2018-07-11T02:45:33.246Z,97883.91
2018-07-11T02:48:01.835Z,97884.44
2018-07-11T02:50:30.370Z,97889.80
2018-07-11T02:52:58.957Z,97888.20
2018-07-11T02:55:27.461Z,97886.08
2018-07-11T02:57:56.014Z,97878.91
2018-07-11T03:00:24.503Z,97877.19
2018-07-11T03:02:53.005Z,97880.78
2018-07-11T03:05:21.537Z,97880.48
2018-07-11T03:07:50.142Z,97889.47
2018-07-11T03:10:18.617Z,97884.33
2018-07-11T03:12:47.197Z,97889.55
2018-07-11T03:15:15.741Z,97886.08
2018-07-11T03:17:44.273Z,97892.78
2018-07-11T03:20:12.743Z,97885.78
2018-07-11T03:22:41.253Z,97892.19
2018-07-11T03:25:09.797Z,97887.61
2018-07-11T03:27:38.377Z,97890.55
2018-07-11T03:30:06.887Z,97887.42
2018-07-11T03:32:35.425Z,97889.87
2018-07-11T03:35:03.892Z,97899.83
2018-07-11T03:37:32.472Z,97899.76
2018-07-11T03:40:01.015Z,97894.91
2018-07-11T03:42:29.546Z,97887.98
2018-07-11T03:44:58.077Z,97887.13
2018-07-11T03:47:26.606Z,97887.23
2018-07-11T03:49:55.068Z,97887.00
2018-07-11T03:52:23.625Z,97889.95
2018-07-11T03:54:52.081Z,97896.48
2018-07-11T03:57:20.586Z,97893.20
2018-07-11T03:59:49.055Z,97893.98
2018-07-11T04:02:17.625Z,97886.19
2018-07-11T04:04:46.162Z,97895.05
2018-07-11T04:07:14.614Z,97891.89
2018-07-11T04:09:43.077Z,97893.80
2018-07-11T04:12:11.589Z,97895.47
2018-07-11T04:14:40.064Z,97893.50
2018-07-11T04:17:08.607Z,97895.41
2018-07-11T04:19:37.094Z,97897.64
2018-07-11T04:22:06.414Z,97894.39
2018-07-11T04:24:35.001Z,97886.00
2018-07-11T04:27:03.781Z,97894.88
2018-07-11T04:29:32.413Z,97895.80
2018-07-11T04:32:00.951Z,97888.70
2018-07-11T04:34:29.659Z,97889.13
2018-07-11T04:36:58.357Z,97890.33
2018-07-11T04:39:27.018Z,97888.80
2018-07-11T04:41:55.800Z,97893.25
2018-07-11T04:44:24.435Z,97888.35
2018-07-11T04:46:53.224Z,97884.70
2018-07-11T04:49:21.830Z,97889.07
2018-07-11T04:51:56.448Z,97896.41
2018-07-11T04:54:25.078Z,97886.62
2018-07-11T04:56:53.970Z,97885.42
2018-07-11T04:59:22.503Z,97894.46
2018-07-11T05:01:51.293Z,97899.11
2018-07-11T05:04:20.662Z,97908.67
2018-07-11T05:06:49.177Z,97906.39
2018-07-11T05:09:17.728Z,97906.33
2018-07-11T05:11:46.278Z,97898.75
2018-07-11T05:14:14.806Z,97900.06
2018-07-11T05:16:43.341Z,97902.08
2018-07-11T05:19:11.853Z,97904.34
2018-07-11T05:21:40.317Z,97907.08
2018-07-11T05:24:08.816Z,97908.70
2018-07-11T05:26:37.277Z,97915.36
2018-07-11T05:29:05.793Z,97914.80
2018-07-11T05:31:34.257Z,97920.18
2018-07-11T05:34:02.739Z,97920.47
2018-07-11T05:36:31.242Z,97915.69
2018-07-11T05:38:59.739Z,97924.61
2018-07-11T05:41:28.330Z,97925.07
2018-07-11T05:43:57.145Z,97927.98
2018-07-11T05:46:25.630Z,97935.25
2018-07-11T05:48:54.169Z,97933.32
2018-07-11T05:51:22.663Z,97932.95
2018-07-11T05:53:51.200Z,97936.14
2018-07-11T05:56:19.674Z,97935.73
2018-07-11T05:58:48.396Z,97935.79
2018-07-11T06:01:16.884Z,97931.33
2018-07-11T06:03:45.439Z,97933.54
2018-07-11T06:06:13.934Z,97932.19
2018-07-11T06:08:42.457Z,97931.95
2018-07-11T06:11:19.237Z,97936.77
2018-07-11T06:13:47.773Z,97940.02
2018-07-11T06:16:16.308Z,97944.86
2018-07-11T06:18:44.813Z,97937.31
2018-07-11T06:21:13.362Z,97942.47
2018-07-11T06:23:42.080Z,97944.52
2018-07-11T06:26:10.611Z,97947.45
2018-07-11T06:28:39.130Z,97947.19
2018-07-11T06:31:07.697Z,97944.15
2018-07-11T06:33:36.358Z,97955.38
2018-07-11T06:36:04.945Z,97954.68
2018-07-11T06:38:33.472Z,97959.80
2018-07-11T06:41:02.161Z,97964.19
2018-07-11T06:43:30.655Z,97963.19
2018-07-11T06:45:59.181Z,97963.99
2018-07-11T06:48:27.825Z,97965.05
2018-07-11T06:50:56.612Z,97965.27
2018-07-11T06:53:25.119Z,97959.33
2018-07-11T06:55:53.655Z,97965.08
2018-07-11T06:58:22.861Z,97967.30
2018-07-11T07:00:51.385Z,97964.70
2018-07-11T07:03:19.922Z,97967.04
2018-07-11T07:05:49.021Z,97969.62
2018-07-11T07:08:17.529Z,97965.47
2018-07-11T07:10:46.029Z,97961.09
2018-07-11T07:13:14.496Z,97959.37
2018-07-11T07:15:42.981Z,97959.23
2018-07-11T07:18:11.843Z,97956.22
2018-07-11T07:20:40.377Z,97957.84
2018-07-11T07:23:08.864Z,97959.61
2018-07-11T07:25:37.373Z,97956.64
2018-07-11T07:28:05.919Z,97961.33
2018-07-11T07:30:34.429Z,97965.64
2018-07-11T07:33:02.931Z,97961.44
2018-07-11T07:35:31.454Z,97966.11
2018-07-11T07:37:59.950Z,97964.88
2018-07-11T07:40:28.459Z,97951.55
2018-07-11T07:42:57.013Z,97962.27
2018-07-11T07:45:25.857Z,97959.81
2018-07-11T07:47:54.413Z,97959.77
2018-07-11T07:50:23.018Z,97960.19
2018-07-11T07:52:51.745Z,97965.44
2018-07-11T07:55:20.391Z,97963.95
2018-07-11T07:57:49.086Z,97955.28
2018-07-11T08:00:17.670Z,97953.31
2018-07-11T08:02:46.214Z,97952.08
2018-07-11T08:05:14.809Z,97941.30
2018-07-11T08:07:43.301Z,97944.32
2018-07-11T08:10:11.989Z,97942.41
2018-07-11T08:12:42.342Z,97936.73
2018-07-11T08:15:10.870Z,97928.53
2018-07-11T08:17:40.057Z,97938.30
2018-07-11T08:20:08.602Z,97941.88
2018-07-11T08:23:18.706Z,97932.50
2018-07-11T08:25:59.701Z,97924.73
2018-07-11T08:29:43.933Z,97932.66
2018-07-11T08:34:32.428Z,97932.84
2018-07-11T08:37:10.625Z,97943.72
2018-07-11T08:41:54.469Z,97946.13
2018-07-11T08:46:38.237Z,97939.13
2018-07-11T08:51:20.546Z,97946.81
2018-07-11T08:54:04.377Z,97946.62
2018-07-11T08:57:13.449Z,97957.77
2018-07-11T09:01:58.048Z,97946.05
2018-07-11T09:05:44.395Z,97943.92
2018-07-11T09:08:24.026Z,97939.09
2018-07-11T09:13:06.428Z,97940.97
2018-07-11T09:15:55.247Z,97944.73
2018-07-11T09:18:36.853Z,97948.48
2018-07-11T09:21:17.048Z,97945.88
2018-07-11T09:23:56.575Z,97947.17
2018-07-11T09:26:26.127Z,97950.73
2018-07-11T09:28:54.731Z,97949.70
2018-07-11T09:31:23.435Z,97953.12
2018-07-11T09:33:51.986Z,97961.84
2018-07-11T09:36:20.577Z,97960.98
2018-07-11T09:38:49.129Z,97960.58
2018-07-11T09:42:46.796Z,97962.78
2018-07-11T09:45:15.419Z,97967.73
2018-07-11T09:47:44.003Z,97965.08
2018-07-11T09:50:12.700Z,97958.48
2018-07-11T09:52:41.374Z,97964.15
2018-07-11T09:55:10.030Z,97963.70
2018-07-11T09:57:39.954Z,97958.87
2018-07-11T10:00:12.746Z,97954.78
2018-07-11T10:02:41.814Z,97955.91
2018-07-11T10:05:10.421Z,97957.45
2018-07-11T10:07:39.027Z,97949.62
2018-07-11T10:10:07.638Z,97947.76
2018-07-11T10:12:36.253Z,97952.81
2018-07-11T10:15:04.853Z,97969.81
2018-07-11T10:17:34.090Z,97966.44
2018-07-11T10:20:02.627Z,97965.70
2018-07-11T10:22:31.207Z,97959.16
2018-07-11T10:25:00.770Z,97964.52
2018-07-11T10:27:29.282Z,97970.28
2018-07-11T10:29:57.797Z,97972.66
2018-07-11T10:32:26.446Z,97968.83
2018-07-11T10:34:55.046Z,97971.03
2018-07-11T10:37:23.640Z,97973.25
2018-07-11T10:39:52.217Z,97969.06
2018-07-11T10:42:22.226Z,97976.36
2018-07-11T10:44:50.724Z,97981.22
2018-07-11T10:48:43.728Z,97981.19
2018-07-11T10:51:12.673Z,97979.70
2018-07-11T10:53:41.341Z,97969.88
2018-07-11T10:56:09.844Z,97977.94
2018-07-11T10:58:39.337Z,97979.39
2018-07-11T11:01:07.955Z,97978.66
2018-07-11T11:03:36.478Z,97970.50
2018-07-11T11:06:05.026Z,97976.22
2018-07-11T11:08:33.521Z,97972.84
2018-07-11T11:11:02.076Z,97977.81
2018-07-11T11:13:30.737Z,97973.11
2018-07-11T11:15:59.304Z,97969.15
2018-07-11T11:18:27.949Z,97958.33
2018-07-11T11:20:57.151Z,97962.19
2018-07-11T11:23:25.667Z,97958.09
2018-07-11T11:25:54.199Z,97963.34
2018-07-11T11:28:22.670Z,97960.28
2018-07-11T11:30:51.189Z,97959.29
2018-07-11T11:33:19.697Z,97956.27
2018-07-11T11:35:48.264Z,97949.03
2018-07-11T11:38:16.749Z,97951.33
2018-07-11T11:40:45.249Z,97952.42
2018-07-11T11:43:13.794Z,97952.20
2018-07-11T11:45:42.370Z,97953.20
2018-07-11T11:48:11.032Z,97947.97
2018-07-11T11:50:41.483Z,97943.92
2018-07-11T11:53:10.010Z,97945.31
2018-07-11T11:55:38.569Z,97946.55
2018-07-11T11:58:07.515Z,97943.36
2018-07-11T12:00:36.070Z,97937.77
2018-07-11T12:03:05.583Z,97948.94
2018-07-11T12:05:34.131Z,97941.78
2018-07-11T12:08:02.650Z,97943.34
2018-07-11T12:10:31.420Z,97949.58
2018-07-11T12:13:01.517Z,97937.48
2018-07-11T12:15:30.023Z,97939.38
2018-07-11T12:17:58.498Z,97941.73
2018-07-11T12:20:27.010Z,97937.57
2018-07-11T12:22:55.643Z,97939.65
2018-07-11T12:25:24.250Z,97927.89
2018-07-11T12:27:52.827Z,97925.08
2018-07-11T12:30:21.377Z,97933.47
2018-07-11T12:32:49.931Z,97922.20
2018-07-11T12:35:19.399Z,97920.13
2018-07-11T12:37:47.925Z,97923.88
2018-07-11T12:40:16.525Z,97922.61
2018-07-11T12:42:45.136Z,97922.40
2018-07-11T12:45:13.725Z,97914.31
2018-07-11T12:47:50.134Z,97919.48
2018-07-11T12:50:18.697Z,97922.02
2018-07-11T12:52:48.237Z,97921.95
2018-07-11T12:55:17.833Z,97923.66
2018-07-11T12:57:46.455Z,97922.40
2018-07-11T13:00:15.924Z,97918.13
2018-07-11T13:02:45.192Z,97916.41
2018-07-11T13:05:13.730Z,97913.45
2018-07-11T13:07:42.341Z,97920.02
2018-07-11T13:13:03.977Z,97910.56
2018-07-11T13:15:32.542Z,97910.13
2018-07-11T13:18:01.262Z,97914.20
2018-07-11T13:20:29.742Z,97911.82
2018-07-11T13:22:58.309Z,97909.77
2018-07-11T13:25:26.976Z,97910.88
2018-07-11T13:27:55.471Z,97921.44
2018-07-11T13:30:24.503Z,97930.84
2018-07-11T13:32:53.110Z,97933.88
2018-07-11T13:35:21.592Z,97937.30
2018-07-11T13:40:43.455Z,97930.96
2018-07-11T13:43:12.597Z,97929.59
2018-07-11T13:45:41.398Z,97924.95
2018-07-11T13:48:09.942Z,97925.89
2018-07-11T13:50:38.450Z,97926.75
2018-07-11T13:53:07.025Z,97921.14
2018-07-11T13:55:35.502Z,97926.28
2018-07-11T13:58:04.058Z,97922.17
2018-07-11T14:00:33.725Z,97912.20
2018-07-11T14:03:02.839Z,97919.52
2018-07-11T14:05:31.333Z,97913.90
2018-07-11T14:07:59.901Z,97906.30
2018-07-11T14:10:28.385Z,97909.62
2018-07-11T14:12:56.958Z,97908.70
2018-07-11T14:15:25.445Z,97907.97
2018-07-11T14:17:53.993Z,97909.20
2018-07-11T14:20:22.534Z,97904.03
2018-07-11T14:22:51.014Z,97917.25
2018-07-11T14:25:21.266Z,97915.45
2018-07-11T14:27:50.924Z,97914.36
2018-07-11T14:30:23.801Z,97917.43
2018-07-11T14:32:55.458Z,97916.50
2018-07-11T14:35:24.006Z,97917.31
2018-07-11T14:37:52.502Z,97924.50
2018-07-11T14:40:22.029Z,97913.02
2018-07-11T14:42:50.585Z,97913.13
2018-07-11T14:45:19.941Z,97916.08
2018-07-11T14:47:53.889Z,97917.76
2018-07-11T14:50:22.442Z,97920.81
2018-07-11T14:52:51.281Z,97926.80
2018-07-11T14:55:19.879Z,97907.30
2018-07-11T14:57:49.066Z,97915.84
2018-07-11T15:00:17.586Z,97912.34
2018-07-11T15:02:46.161Z,97908.08
2018-07-11T15:05:14.663Z,97906.53
2018-07-11T15:07:43.335Z,97907.03
2018-07-11T15:10:11.868Z,97908.47
2018-07-11T15:12:40.443Z,97907.38
2018-07-11T15:15:08.942Z,97907.80
2018-07-11T15:17:37.548Z,97916.59
2018-07-11T15:20:06.134Z,97912.48
2018-07-11T15:22:34.702Z,97908.14
2018-07-11T15:25:03.207Z,97914.16
2018-07-11T15:27:31.765Z,97911.85
2018-07-11T15:30:00.277Z,97918.80
2018-07-11T15:32:28.918Z,97920.59
2018-07-11T15:34:57.446Z,97915.48
2018-07-11T15:37:26.011Z,97916.88
2018-07-11T15:39:54.969Z,97907.78
2018-07-11T15:42:23.519Z,97904.22
2018-07-11T15:44:52.917Z,97916.72
2018-07-11T15:47:22.411Z,97923.36
2018-07-11T15:49:52.709Z,97923.54
2018-07-11T15:52:22.942Z,97927.01
2018-07-11T15:54:51.945Z,97929.71
2018-07-11T15:57:33.822Z,97931.63
2018-07-11T16:00:07.947Z,97932.03
2018-07-11T16:02:41.071Z,97938.73
2018-07-11T16:05:10.288Z,97942.87
2018-07-11T16:07:41.778Z,97942.36
2018-07-11T16:10:10.642Z,97942.13
2018-07-11T16:12:39.161Z,97941.19
2018-07-11T16:15:07.701Z,97940.38
2018-07-11T16:17:36.170Z,97950.17
2018-07-11T16:20:04.866Z,97951.42
2018-07-11T16:22:33.761Z,97957.36
2018-07-11T16:25:02.395Z,97950.94
2018-07-11T16:27:30.932Z,97949.11
2018-07-11T16:29:59.462Z,97948.67
2018-07-11T16:32:27.973Z,97957.56
2018-07-11T16:34:56.542Z,97950.39
2018-07-11T16:37:25.139Z,97952.66
2018-07-11T16:39:54.028Z,97955.77
2018-07-11T16:42:22.497Z,97951.36
2018-07-11T16:44:52.242Z,97957.67
2018-07-11T16:47:20.829Z,97956.78
2018-07-11T16:49:50.544Z,97966.05
2018-07-11T16:52:19.119Z,97957.47
2018-07-11T16:54:47.701Z,97959.63
2018-07-11T16:57:22.120Z,97950.63
2018-07-11T16:59:57.456Z,97958.84
2018-07-11T17:02:27.158Z,97966.97
2018-07-11T17:05:00.122Z,97956.42
2018-07-11T17:07:28.686Z,97961.62
2018-07-11T17:09:59.722Z,97967.48
2018-07-11T17:12:28.526Z,97964.84
2018-07-11T17:14:59.762Z,97965.31
2018-07-11T17:17:34.921Z,97960.59
2018-07-11T17:20:08.911Z,97967.56
2018-07-11T17:22:49.945Z,97965.81
2018-07-11T17:25:20.892Z,97966.19
2018-07-11T17:27:57.194Z,97962.73
2018-07-11T17:30:25.798Z,97967.05
2018-07-11T17:32:55.419Z,97956.52
2018-07-11T17:35:23.951Z,97960.57
2018-07-11T17:37:52.594Z,97970.23
2018-07-11T17:40:25.206Z,97972.86
2018-07-11T17:42:55.346Z,97977.45
2018-07-11T17:45:23.912Z,97975.22
2018-07-11T17:47:57.445Z,97980.11
2018-07-11T17:50:29.810Z,97973.38
2018-07-11T17:53:08.902Z,97973.30
2018-07-11T17:55:46.426Z,97978.86
2018-07-11T17:58:14.965Z,97980.30
2018-07-11T18:00:50.034Z,97987.22
2018-07-11T18:03:27.446Z,97990.54
2018-07-11T18:07:02.807Z,97989.04
2018-07-11T18:09:44.036Z,98001.74
2018-07-11T18:12:23.561Z,97994.48
2018-07-11T18:15:02.342Z,98000.62
2018-07-11T18:17:39.322Z,97995.75
2018-07-11T18:20:16.909Z,97999.55
2018-07-11T18:22:58.471Z,97997.38
2018-07-11T18:26:37.873Z,97996.66
2018-07-11T18:29:29.111Z,98002.48
2018-07-11T18:32:38.551Z,97997.90
2018-07-11T18:35:19.478Z,97997.30
2018-07-11T18:37:57.233Z,98005.22
2018-07-11T18:41:50.537Z,98004.77
2018-07-11T18:44:25.912Z,98010.80
2018-07-11T18:47:08.569Z,98013.77
2018-07-11T18:49:52.201Z,98014.06
2018-07-11T18:52:30.577Z,98018.39
2018-07-11T18:55:08.346Z,98018.95
2018-07-11T18:57:46.957Z,98013.60
2018-07-11T19:01:52.258Z,98013.58
2018-07-11T19:04:25.053Z,98015.49
2018-07-11T19:07:11.716Z,98017.91
2018-07-11T19:09:51.930Z,98014.44
2018-07-11T19:12:30.394Z,98022.27
2018-07-11T19:15:05.580Z,98023.61
2018-07-11T19:18:05.968Z,98023.88
2018-07-11T19:20:38.553Z,98021.17
2018-07-11T19:23:33.465Z,98019.53
2018-07-11T19:26:10.956Z,98023.84
2018-07-11T19:29:48.756Z,98025.72
2018-07-11T19:32:53.820Z,98023.52
2018-07-11T19:35:32.914Z,98032.91
2018-07-11T19:38:05.598Z,98033.21
2018-07-11T19:40:47.416Z,98039.70
2018-07-11T19:45:32.403Z,98048.82
2018-07-11T19:48:17.817Z,98053.59
2018-07-11T19:50:59.642Z,98053.31
2018-07-11T19:54:36.046Z,98053.84
2018-07-11T19:57:04.701Z,98058.34
2018-07-11T19:59:33.276Z,98051.38
2018-07-11T20:02:02.922Z,98052.92
2018-07-11T20:04:31.437Z,98052.13
2018-07-11T20:07:00.094Z,98061.70
2018-07-11T20:09:28.690Z,98059.02
2018-07-11T20:11:57.558Z,98054.73
2018-07-11T20:14:26.182Z,98055.53
2018-07-11T20:16:54.782Z,98059.52
2018-07-11T20:19:23.705Z,98060.09
2018-07-11T20:21:52.302Z,98054.16
2018-07-11T20:24:20.837Z,98059.52
2018-07-11T20:26:49.472Z,98057.12
2018-07-11T20:29:18.074Z,98048.78
2018-07-11T20:31:46.678Z,98049.86
2018-07-11T20:34:15.357Z,98054.66
2018-07-11T20:36:45.118Z,98047.14
2018-07-11T20:39:13.735Z,98042.58
2018-07-11T20:41:42.371Z,98048.46
2018-07-11T20:44:11.010Z,98051.70
2018-07-11T20:46:39.571Z,98045.75
2018-07-11T20:49:13.476Z,98047.94
2018-07-11T20:51:42.958Z,98050.13
2018-07-11T20:54:11.516Z,98055.45
2018-07-11T20:56:40.461Z,98058.35
2018-07-11T20:59:20.189Z,98057.44
2018-07-11T21:01:59.790Z,98066.72
2018-07-11T21:04:40.120Z,98072.77
2018-07-11T21:07:20.220Z,98074.06
2018-07-11T21:09:58.531Z,98078.24
2018-07-11T21:13:30.424Z,98080.36
2018-07-11T21:18:12.631Z,98089.04
2018-07-11T21:20:41.189Z,98085.16
2018-07-11T21:23:10.712Z,98090.54
2018-07-11T21:25:39.462Z,98093.54
2018-07-11T21:28:08.145Z,98093.53
2018-07-11T21:30:37.513Z,98091.93
2018-07-11T21:33:06.320Z,98087.03
2018-07-11T21:35:35.018Z,98091.33
2018-07-11T21:38:04.577Z,98090.45
2018-07-11T21:40:33.489Z,98089.20
2018-07-11T21:43:02.034Z,98088.56
2018-07-11T21:45:30.663Z,98092.19
2018-07-11T21:47:59.135Z,98088.25
2018-07-11T21:50:27.719Z,98090.11
2018-07-11T21:52:56.349Z,98091.58
2018-07-11T21:55:25.221Z,98087.73
2018-07-11T21:57:53.876Z,98094.02
2018-07-11T22:00:34.290Z,98093.92
2018-07-11T22:03:03.387Z,98093.66
2018-07-11T22:05:32.689Z,98088.82
2018-07-11T22:08:01.263Z,98090.33
2018-07-11T22:10:29.895Z,98087.13
2018-07-11T22:12:58.453Z,98088.74
2018-07-11T22:15:27.056Z,98089.81
2018-07-11T22:18:06.806Z,98094.38
2018-07-11T22:20:34.625Z,98093.39
2018-07-11T22:23:03.559Z,98095.00
2018-07-11T22:25:31.092Z,98093.19
2018-07-11T22:27:58.425Z,98095.81
2018-07-11T22:30:26.205Z,98085.59
2018-07-11T22:32:55.114Z,98088.72
2018-07-11T22:35:22.687Z,98094.87
2018-07-11T22:37:50.003Z,98083.52
2018-07-11T22:40:18.134Z,98086.78
2018-07-11T22:42:45.436Z,98094.16
2018-07-11T22:45:12.697Z,98088.12
2018-07-11T22:47:39.986Z,98090.02
2018-07-11T22:50:07.267Z,98096.64
2018-07-11T22:52:34.579Z,98091.21
2018-07-11T22:55:02.622Z,98087.36
2018-07-11T22:57:30.991Z,98090.34
2018-07-11T22:59:58.285Z,98085.38
2018-07-11T23:02:25.612Z,98088.13
2018-07-11T23:04:52.917Z,98086.22
2018-07-11T23:07:20.246Z,98090.45
2018-07-11T23:09:47.535Z,98093.13
2018-07-11T23:12:14.864Z,98090.80
2018-07-11T23:14:42.229Z,98091.27
2018-07-11T23:17:09.799Z,98092.25
2018-07-11T23:19:37.089Z,98091.42
2018-07-11T23:22:04.488Z,98095.55
2018-07-11T23:24:31.783Z,98096.54
2018-07-11T23:26:59.092Z,98093.33
2018-07-11T23:29:26.730Z,98097.73
2018-07-11T23:31:54.790Z,98085.34
2018-07-11T23:34:22.070Z,98096.78
2018-07-11T23:36:49.418Z,98096.28
2018-07-11T23:39:17.481Z,98098.13
2018-07-11T23:41:44.806Z,98095.80
2018-07-11T23:44:12.082Z,98085.69
2018-07-11T23:46:39.384Z,98089.73
2018-07-11T23:49:06.654Z,98090.33
2018-07-11T23:51:33.951Z,98084.65
2018-07-11T23:54:01.237Z,98081.71
2018-07-11T23:56:28.549Z,98079.33
2018-07-11T23:58:55.809Z,98079.63
